createdAt,value
2022-08-22T00:02:52.599Z,36.63
2022-08-22T00:03:01.247Z,36.84
2022-08-22T00:03:11.354Z,37.08
2022-08-22T00:06:01.430Z,40.52
2022-08-22T00:08:39.771Z,41.00
2022-08-22T00:11:46.302Z,40.95
2022-08-22T00:14:17.959Z,40.94
2022-08-22T00:16:45.426Z,41.27
2022-08-22T00:19:27.538Z,41.21
2022-08-22T00:22:21.685Z,41.04
2022-08-22T00:25:24.841Z,41.44
2022-08-22T00:28:19.345Z,42.20
2022-08-22T00:31:20.112Z,42.17
2022-08-22T00:33:53.689Z,42.36
2022-08-22T00:36:58.991Z,42.37
2022-08-22T00:40:04.401Z,42.32
2022-08-22T00:42:53.610Z,42.71
2022-08-22T00:45:39.310Z,42.06
2022-08-22T00:48:28.048Z,41.71
2022-08-22T00:51:32.233Z,42.18
2022-08-22T00:54:24.440Z,43.18
2022-08-22T00:57:19.880Z,43.91
2022-08-22T01:00:14.235Z,43.51
2022-08-22T01:02:50.419Z,44.26
2022-08-22T01:05:30.798Z,44.24
2022-08-22T01:08:15.797Z,44.27
2022-08-22T01:11:05.525Z,44.91
2022-08-22T01:14:00.956Z,45.16
2022-08-22T01:16:50.006Z,45.06
2022-08-22T01:19:26.201Z,45.77
2022-08-22T01:22:14.494Z,45.33
2022-08-22T01:25:18.478Z,46.00
2022-08-22T01:28:22.846Z,46.41
2022-08-22T01:31:27.320Z,45.75
2022-08-22T01:34:13.259Z,45.96
2022-08-22T01:37:01.970Z,46.08
2022-08-22T01:39:40.887Z,46.83
2022-08-22T01:42:45.114Z,47.27
2022-08-22T01:45:18.441Z,47.54
2022-08-22T01:48:39.967Z,48.02
2022-08-22T01:51:25.251Z,48.79
2022-08-22T01:54:20.884Z,49.52
2022-08-22T01:56:49.083Z,49.67
2022-08-22T01:59:53.230Z,50.45
2022-08-22T02:02:41.708Z,50.83
2022-08-22T02:05:18.691Z,50.38
2022-08-22T02:08:03.805Z,50.19
2022-08-22T02:10:49.108Z,49.25
2022-08-22T02:13:29.202Z,49.10
2022-08-22T02:16:25.446Z,49.37
2022-08-22T02:19:14.261Z,50.04
2022-08-22T02:21:55.397Z,50.17
2022-08-22T02:24:38.508Z,50.33
2022-08-22T02:27:11.642Z,51.14
2022-08-22T02:29:49.004Z,50.95
2022-08-22T02:32:33.680Z,50.86
2022-08-22T02:35:07.018Z,50.76
2022-08-22T02:37:40.007Z,50.17
2022-08-22T02:40:13.658Z,50.16
2022-08-22T02:42:52.350Z,50.20
2022-08-22T02:45:35.895Z,50.05
2022-08-22T02:48:15.618Z,50.42
2022-08-22T02:50:51.969Z,50.22
2022-08-22T02:53:41.349Z,50.41
2022-08-22T02:56:28.486Z,50.25
2022-08-22T02:59:32.174Z,50.29
2022-08-22T03:02:39.740Z,50.24
2022-08-22T03:05:36.283Z,50.17
2022-08-22T03:08:27.529Z,50.08
2022-08-22T03:11:21.916Z,50.25
2022-08-22T03:14:26.454Z,50.17
2022-08-22T03:17:06.186Z,50.08
2022-08-22T03:19:56.498Z,50.08
2022-08-22T03:22:23.746Z,50.26
2022-08-22T03:25:04.022Z,50.36
2022-08-22T03:28:00.845Z,50.42
2022-08-22T03:30:43.972Z,49.88
2022-08-22T03:33:30.338Z,50.01
2022-08-22T03:36:06.984Z,50.00
2022-08-22T03:38:34.105Z,49.49
2022-08-22T03:41:19.443Z,49.46
2022-08-22T03:44:14.958Z,49.52
2022-08-22T03:47:00.313Z,49.27
2022-08-22T03:50:15.364Z,49.54
2022-08-22T03:53:06.915Z,49.25
2022-08-22T03:56:01.271Z,49.25
2022-08-22T03:59:03.167Z,49.22
2022-08-22T04:01:40.444Z,48.72
2022-08-22T04:04:31.868Z,49.00
2022-08-22T04:07:35.177Z,48.86
2022-08-22T04:10:25.413Z,48.67
2022-08-22T04:13:30.144Z,48.33
2022-08-22T04:16:03.334Z,47.79
2022-08-22T04:19:03.843Z,47.33
2022-08-22T04:21:53.429Z,46.44
2022-08-22T04:25:01.124Z,45.42
2022-08-22T04:27:41.315Z,45.98
2022-08-22T04:30:31.523Z,46.30
2022-08-22T04:33:17.915Z,46.49
2022-08-22T04:35:58.106Z,46.33
2022-08-22T04:38:38.179Z,46.58
2022-08-22T04:41:22.195Z,46.89
2022-08-22T04:43:56.834Z,46.59
2022-08-22T04:46:41.658Z,46.65
2022-08-22T04:49:48.034Z,46.67
2022-08-22T04:52:35.295Z,46.52
2022-08-22T04:55:27.218Z,46.08
2022-08-22T04:58:02.866Z,44.69
2022-08-22T05:01:00.584Z,43.19
2022-08-22T05:03:30.323Z,43.08
2022-08-22T05:06:01.796Z,42.09
2022-08-22T05:08:34.326Z,41.31
2022-08-22T05:11:03.107Z,40.99
2022-08-22T05:13:48.542Z,39.67
2022-08-22T05:16:20.522Z,39.19
2022-08-22T05:18:57.438Z,39.74
2022-08-22T05:21:34.336Z,41.55
2022-08-22T05:24:12.677Z,40.36
2022-08-22T05:26:47.822Z,38.80
2022-08-22T05:29:20.557Z,38.11
2022-08-22T05:31:56.533Z,38.32
2022-08-22T05:34:28.543Z,38.13
2022-08-22T05:37:20.842Z,38.51
2022-08-22T05:39:54.135Z,38.34
2022-08-22T05:42:30.286Z,38.56
2022-08-22T05:44:57.602Z,38.13
2022-08-22T05:47:34.827Z,38.81
2022-08-22T05:50:02.557Z,39.07
2022-08-22T05:52:36.736Z,39.42
2022-08-22T05:55:21.826Z,39.49
2022-08-22T05:57:55.685Z,40.24
2022-08-22T06:00:27.296Z,40.98
2022-08-22T06:03:17.661Z,41.44
2022-08-22T06:05:50.100Z,42.28
2022-08-22T06:08:31.630Z,42.39
2022-08-22T06:11:07.615Z,42.73
2022-08-22T06:13:41.336Z,41.88
2022-08-22T06:16:30.818Z,42.22
2022-08-22T06:18:58.168Z,41.41
2022-08-22T06:21:38.607Z,39.95
2022-08-22T06:24:10.115Z,38.69
2022-08-22T06:26:46.088Z,38.85
2022-08-22T06:29:30.750Z,38.98
2022-08-22T06:32:01.015Z,39.74
2022-08-22T06:34:36.928Z,40.42
2022-08-22T06:37:08.557Z,41.33
2022-08-22T06:39:40.739Z,41.75
2022-08-22T06:42:16.895Z,42.04
2022-08-22T06:44:47.074Z,42.49
2022-08-22T06:47:20.998Z,41.17
2022-08-22T06:49:51.074Z,38.33
2022-08-22T06:52:23.754Z,35.69
2022-08-22T06:54:59.330Z,34.75
2022-08-22T06:57:29.228Z,33.03
2022-08-22T06:59:58.279Z,32.60
2022-08-22T07:02:59.301Z,32.97
2022-08-22T07:05:29.537Z,33.22
2022-08-22T07:07:57.480Z,33.57
2022-08-22T07:10:25.634Z,32.91
2022-08-22T07:12:56.791Z,33.80
2022-08-22T07:15:36.775Z,33.53
2022-08-22T07:18:26.125Z,34.50
2022-08-22T07:20:57.353Z,34.53
2022-08-22T07:23:31.881Z,34.48
2022-08-22T07:26:05.210Z,34.54
2022-08-22T07:28:58.523Z,34.39
2022-08-22T07:31:32.141Z,34.17
2022-08-22T07:34:25.918Z,34.28
2022-08-22T07:37:01.876Z,34.07
2022-08-22T07:39:35.118Z,34.21
2022-08-22T07:42:05.663Z,34.88
2022-08-22T07:45:14.358Z,34.57
2022-08-22T07:48:07.435Z,34.80
2022-08-22T07:51:12.760Z,35.03
2022-08-22T07:54:00.929Z,35.22
2022-08-22T07:56:33.746Z,35.51
2022-08-22T07:59:17.345Z,35.74
2022-08-22T08:01:52.132Z,35.17
2022-08-22T08:04:34.881Z,34.70
2022-08-22T08:07:08.484Z,34.88
2022-08-22T08:09:42.930Z,35.02
2022-08-22T08:12:12.095Z,35.00
2022-08-22T08:14:42.188Z,34.64
2022-08-22T08:17:17.744Z,35.09
2022-08-22T08:19:45.610Z,35.76
2022-08-22T08:22:20.259Z,35.84
2022-08-22T08:24:49.534Z,36.26
2022-08-22T08:27:45.944Z,36.21
2022-08-22T08:30:25.953Z,36.27
2022-08-22T08:32:57.452Z,36.01
2022-08-22T08:36:02.599Z,36.32
2022-08-22T08:38:42.588Z,35.74
2022-08-22T08:41:28.572Z,35.47
2022-08-22T08:44:10.431Z,35.96
2022-08-22T08:46:38.551Z,35.97
2022-08-22T08:49:14.970Z,35.16
2022-08-22T08:51:52.968Z,35.13
2022-08-22T08:54:27.083Z,35.49
2022-08-22T08:57:00.232Z,35.10
2022-08-22T08:59:48.707Z,35.02
2022-08-22T09:02:45.913Z,35.39
2022-08-22T09:05:51.085Z,35.53
2022-08-22T09:08:36.938Z,35.86
2022-08-22T09:11:49.069Z,35.00
2022-08-22T09:14:54.297Z,35.29
2022-08-22T09:17:43.012Z,34.56
2022-08-22T09:20:25.430Z,34.47
2022-08-22T09:23:17.817Z,34.16
2022-08-22T09:26:12.682Z,33.38
2022-08-22T09:28:51.937Z,33.54
2022-08-22T09:31:47.480Z,33.82
2022-08-22T09:34:27.903Z,32.93
2022-08-22T09:37:29.387Z,33.29
2022-08-22T09:40:16.976Z,32.66
2022-08-22T09:42:46.499Z,32.88
2022-08-22T09:45:33.861Z,33.08
2022-08-22T09:48:22.712Z,33.44
2022-08-22T09:51:04.670Z,34.02
2022-08-22T09:53:54.811Z,33.41
2022-08-22T09:56:50.668Z,33.45
2022-08-22T09:59:41.286Z,33.10
2022-08-22T10:02:43.305Z,32.40
2022-08-22T10:05:40.675Z,32.53
2022-08-22T10:08:58.138Z,33.04
2022-08-22T10:11:30.385Z,32.54
2022-08-22T10:14:22.202Z,32.74
2022-08-22T10:17:21.856Z,32.06
2022-08-22T10:20:12.368Z,32.63
2022-08-22T10:22:53.316Z,32.26
2022-08-22T10:25:41.656Z,32.94
2022-08-22T10:28:14.377Z,32.16
2022-08-22T10:30:47.520Z,32.34
2022-08-22T10:33:35.916Z,32.23
2022-08-22T10:36:47.999Z,31.71
2022-08-22T10:39:28.120Z,31.71
2022-08-22T10:42:19.555Z,31.57
2022-08-22T10:45:09.625Z,31.13
2022-08-22T10:48:08.798Z,31.02
2022-08-22T10:50:52.177Z,30.71
2022-08-22T10:53:34.929Z,30.95
2022-08-22T10:56:37.552Z,30.44
2022-08-22T10:59:35.980Z,30.77
2022-08-22T11:02:28.034Z,30.91
2022-08-22T11:05:14.048Z,30.58
2022-08-22T11:08:10.057Z,31.24
2022-08-22T11:11:09.126Z,30.60
2022-08-22T11:13:43.282Z,30.79
2022-08-22T11:16:41.949Z,30.91
2022-08-22T11:19:40.057Z,30.51
2022-08-22T11:22:33.888Z,30.31
2022-08-22T11:25:23.780Z,29.91
2022-08-22T11:28:15.628Z,30.77
2022-08-22T11:31:07.720Z,30.54
2022-08-22T11:33:59.120Z,30.73
2022-08-22T11:36:35.619Z,30.42
2022-08-22T11:39:34.565Z,31.42
2022-08-22T11:42:12.572Z,29.94
2022-08-22T11:44:51.508Z,29.10
2022-08-22T11:47:26.556Z,29.27
2022-08-22T11:49:58.316Z,30.03
2022-08-22T11:52:43.529Z,29.62
2022-08-22T11:55:32.551Z,29.62
2022-08-22T11:58:09.972Z,30.26
2022-08-22T12:00:46.047Z,30.50
2022-08-22T12:03:23.241Z,30.45
2022-08-22T12:05:57.077Z,30.59
2022-08-22T12:08:31.174Z,30.79
2022-08-22T12:11:13.879Z,30.21
2022-08-22T12:14:02.452Z,30.46
2022-08-22T12:16:55.624Z,30.39
2022-08-22T12:19:35.712Z,30.79
2022-08-22T12:22:34.764Z,30.86
2022-08-22T12:25:17.454Z,31.12
2022-08-22T12:28:12.572Z,30.98
2022-08-22T12:30:54.711Z,30.78
2022-08-22T12:33:37.399Z,30.73
2022-08-22T12:36:18.337Z,30.53
2022-08-22T12:39:12.266Z,31.17
2022-08-22T12:42:01.007Z,30.59
2022-08-22T12:44:34.518Z,31.15
2022-08-22T12:47:04.660Z,31.11
2022-08-22T12:49:57.109Z,31.19
2022-08-22T12:52:44.306Z,31.32
2022-08-22T12:55:17.443Z,31.23
2022-08-22T12:58:34.541Z,31.20
2022-08-22T13:01:07.455Z,31.46
2022-08-22T13:03:47.403Z,31.42
2022-08-22T13:06:36.194Z,31.93
2022-08-22T13:09:30.805Z,31.64
2022-08-22T13:12:31.859Z,31.50
2022-08-22T13:15:16.178Z,32.39
2022-08-22T13:17:47.667Z,31.83
2022-08-22T13:20:26.608Z,32.09
2022-08-22T13:22:55.590Z,31.26
2022-08-22T13:25:26.880Z,30.95
2022-08-22T13:27:59.158Z,31.03
2022-08-22T13:30:32.595Z,31.29
2022-08-22T13:33:22.657Z,30.84
2022-08-22T13:35:53.548Z,30.36
2022-08-22T13:38:28.416Z,30.64
2022-08-22T13:40:58.176Z,30.34
2022-08-22T13:43:59.980Z,30.21
2022-08-22T13:46:35.430Z,30.33
2022-08-22T13:49:08.090Z,30.23
2022-08-22T13:51:47.661Z,29.85
2022-08-22T13:54:21.338Z,29.88
2022-08-22T13:57:09.167Z,29.93
2022-08-22T13:59:52.426Z,29.45
2022-08-22T14:02:34.399Z,30.38
2022-08-22T14:05:08.955Z,29.87
2022-08-22T14:07:53.603Z,30.09
2022-08-22T14:10:29.711Z,30.21
2022-08-22T14:12:56.791Z,30.29
2022-08-22T14:15:32.223Z,30.38
2022-08-22T14:18:30.053Z,31.16
2022-08-22T14:21:33.414Z,31.16
2022-08-22T14:24:19.408Z,31.01
2022-08-22T14:27:06.733Z,31.27
2022-08-22T14:29:53.485Z,31.54
2022-08-22T14:32:25.851Z,31.89
2022-08-22T14:35:21.419Z,32.08
2022-08-22T14:37:54.364Z,32.20
2022-08-22T14:40:29.086Z,32.53
2022-08-22T14:43:22.571Z,32.63
2022-08-22T14:46:02.010Z,32.75
2022-08-22T14:48:43.622Z,33.01
2022-08-22T14:51:23.169Z,32.68
2022-08-22T14:53:51.675Z,33.13
2022-08-22T14:56:23.558Z,32.62
2022-08-22T14:58:59.656Z,32.78
2022-08-22T15:01:32.897Z,32.69
2022-08-22T15:04:19.273Z,32.55
2022-08-22T15:06:57.919Z,32.60
2022-08-22T15:09:28.623Z,32.50
2022-08-22T15:11:58.278Z,32.15
2022-08-22T15:14:45.706Z,32.08
2022-08-22T15:17:45.081Z,32.17
2022-08-22T15:20:36.193Z,31.91
2022-08-22T15:23:18.133Z,31.94
2022-08-22T15:25:56.486Z,31.75
2022-08-22T15:28:24.894Z,31.72
2022-08-22T15:31:03.592Z,31.24
2022-08-22T15:33:39.262Z,30.93
2022-08-22T15:36:31.114Z,31.23
2022-08-22T15:39:47.053Z,30.80
2022-08-22T15:42:26.363Z,30.86
2022-08-22T15:44:55.281Z,30.94
2022-08-22T15:47:36.254Z,30.90
2022-08-22T15:50:14.710Z,31.11
2022-08-22T15:53:10.525Z,31.35
2022-08-22T15:55:38.177Z,31.16
2022-08-22T15:58:09.229Z,31.23
2022-08-22T16:00:45.040Z,31.31
2022-08-22T16:03:28.756Z,31.20
2022-08-22T16:06:05.035Z,31.69
2022-08-22T16:08:51.651Z,32.24
2022-08-22T16:11:21.812Z,31.81
2022-08-22T16:14:17.146Z,32.01
2022-08-22T16:16:45.002Z,31.93
2022-08-22T16:19:20.276Z,32.13
2022-08-22T16:21:47.797Z,31.89
2022-08-22T16:24:14.886Z,32.47
2022-08-22T16:26:43.719Z,32.40
2022-08-22T16:29:14.713Z,32.32
2022-08-22T16:31:44.496Z,32.22
2022-08-22T16:34:17.476Z,32.61
2022-08-22T16:37:03.526Z,32.21
2022-08-22T16:39:41.036Z,32.40
2022-08-22T16:42:23.909Z,33.00
2022-08-22T16:45:05.339Z,33.02
2022-08-22T16:47:33.173Z,33.34
2022-08-22T16:50:18.679Z,33.86
2022-08-22T16:53:09.387Z,34.04
2022-08-22T16:55:47.743Z,33.99
2022-08-22T16:58:50.238Z,34.49
2022-08-22T17:02:01.259Z,34.69
2022-08-22T17:04:54.563Z,35.14
2022-08-22T17:07:40.101Z,35.06
2022-08-22T17:10:12.355Z,35.44
2022-08-22T17:12:52.121Z,35.74
2022-08-22T17:15:35.358Z,35.88
2022-08-22T17:18:35.304Z,36.39
2022-08-22T17:21:13.768Z,36.55
2022-08-22T17:23:53.278Z,36.58
2022-08-22T17:26:28.946Z,36.76
2022-08-22T17:29:02.428Z,36.66
2022-08-22T17:31:32.950Z,37.21
2022-08-22T17:34:19.102Z,37.31
2022-08-22T17:36:46.128Z,37.06
2022-08-22T17:39:16.302Z,37.83
2022-08-22T17:42:19.015Z,37.70
2022-08-22T17:45:12.869Z,37.85
2022-08-22T17:47:49.485Z,37.68
2022-08-22T17:50:16.584Z,38.23
2022-08-22T17:52:53.156Z,37.65
2022-08-22T17:55:30.547Z,38.03
2022-08-22T17:58:10.537Z,38.05
2022-08-22T18:00:47.700Z,38.57
2022-08-22T18:03:31.712Z,38.37
2022-08-22T18:06:05.101Z,37.99
2022-08-22T18:11:50.167Z,38.08
2022-08-22T18:14:45.057Z,38.20
2022-08-22T18:17:20.352Z,38.19
2022-08-22T18:20:33.437Z,37.95
2022-08-22T18:23:39.028Z,38.33
2022-08-22T18:26:24.138Z,38.52
2022-08-22T18:28:57.469Z,38.56
2022-08-22T18:31:38.291Z,38.69
2022-08-22T18:34:30.656Z,38.74
2022-08-22T18:37:15.455Z,38.89
2022-08-22T18:39:52.052Z,38.85
2022-08-22T18:42:49.440Z,39.33
2022-08-22T18:45:48.551Z,39.55
2022-08-22T18:48:30.663Z,39.63
2022-08-22T18:51:26.889Z,40.05
2022-08-22T18:54:17.150Z,39.99
2022-08-22T18:56:58.348Z,40.22
2022-08-22T18:59:48.718Z,40.40
2022-08-22T19:02:51.150Z,40.74
2022-08-22T19:05:39.867Z,40.95
2022-08-22T19:08:42.470Z,40.99
2022-08-22T19:11:45.436Z,40.87
2022-08-22T19:14:41.002Z,40.94
2022-08-22T19:17:36.682Z,40.87
2022-08-22T19:20:51.836Z,40.80
2022-08-22T19:23:34.452Z,40.87
2022-08-22T19:26:23.356Z,40.88
2022-08-22T19:29:11.789Z,41.01
2022-08-22T19:31:41.267Z,40.94
2022-08-22T19:34:29.703Z,41.29
2022-08-22T19:37:30.740Z,41.21
2022-08-22T19:40:11.720Z,41.19
2022-08-22T19:42:44.256Z,41.08
2022-08-22T19:45:26.715Z,41.34
2022-08-22T19:48:13.218Z,41.33
2022-08-22T19:50:43.348Z,41.47
2022-08-22T19:53:22.707Z,41.44
2022-08-22T19:55:55.861Z,41.52
2022-08-22T19:58:51.966Z,41.69
2022-08-22T20:01:48.932Z,41.67
2022-08-22T20:04:55.221Z,41.63
2022-08-22T20:08:05.521Z,41.93
2022-08-22T20:10:59.754Z,42.28
2022-08-22T20:13:31.452Z,42.46
2022-08-22T20:16:16.209Z,42.12
2022-08-22T20:19:08.725Z,42.32
2022-08-22T20:21:40.597Z,42.14
2022-08-22T20:24:12.395Z,42.12
2022-08-22T20:26:57.573Z,41.78
2022-08-22T20:29:33.437Z,42.04
2022-08-22T20:32:04.364Z,42.02
2022-08-22T20:34:36.941Z,41.74
2022-08-22T20:37:31.978Z,42.32
2022-08-22T20:40:55.403Z,42.82
2022-08-22T20:43:47.555Z,42.66
2022-08-22T20:46:34.028Z,43.00
2022-08-22T20:49:02.834Z,42.94
2022-08-22T20:51:33.858Z,43.36
2022-08-22T20:54:17.467Z,43.33
2022-08-22T20:56:55.637Z,43.57
2022-08-22T20:59:27.977Z,43.67
2022-08-22T21:02:20.844Z,43.57
2022-08-22T21:05:04.546Z,43.76
2022-08-22T21:07:32.560Z,43.75
2022-08-22T21:10:25.633Z,44.09
2022-08-22T21:13:18.020Z,44.37
2022-08-22T21:16:15.989Z,44.90
2022-08-22T21:18:49.097Z,45.10
2022-08-22T21:21:26.016Z,45.18
2022-08-22T21:23:59.907Z,45.36
2022-08-22T21:26:32.945Z,45.80
2022-08-22T21:29:06.211Z,45.96
2022-08-22T21:31:51.591Z,46.43
2022-08-22T21:34:30.039Z,46.71
2022-08-22T21:37:02.598Z,47.02
2022-08-22T21:39:37.849Z,47.39
2022-08-22T21:42:22.050Z,47.50
2022-08-22T21:45:00.286Z,47.88
2022-08-22T21:47:30.124Z,48.03
2022-08-22T21:50:38.241Z,48.28
2022-08-22T21:53:12.102Z,48.51
2022-08-22T21:55:46.310Z,48.62
2022-08-22T21:58:35.035Z,48.91
2022-08-22T22:01:28.646Z,49.13
2022-08-22T22:03:57.850Z,49.21
2022-08-22T22:06:26.113Z,49.32
2022-08-22T22:08:53.279Z,49.52
2022-08-22T22:11:20.482Z,49.42
2022-08-22T22:13:47.953Z,49.58
2022-08-22T22:16:21.463Z,50.10
2022-08-22T22:18:48.518Z,50.37
2022-08-22T22:21:17.290Z,50.20
2022-08-22T22:23:45.277Z,50.44
2022-08-22T22:26:14.645Z,50.95
2022-08-22T22:28:47.721Z,50.71
2022-08-22T22:31:16.634Z,51.29
2022-08-22T22:33:44.892Z,51.29
2022-08-22T22:36:38.731Z,51.52
2022-08-22T22:39:07.088Z,51.42
2022-08-22T22:41:35.602Z,51.67
2022-08-22T22:44:04.820Z,51.92
2022-08-22T22:46:32.055Z,52.19
2022-08-22T22:48:59.530Z,52.37
2022-08-22T22:51:26.861Z,52.67
2022-08-22T22:53:57.604Z,53.17
2022-08-22T22:56:25.286Z,53.27
2022-08-22T22:58:59.254Z,53.48
2022-08-22T23:02:07.671Z,53.87
2022-08-22T23:04:38.956Z,53.90
2022-08-22T23:07:07.348Z,54.02
2022-08-22T23:09:38.809Z,54.13
2022-08-22T23:12:12.781Z,54.09
2022-08-22T23:14:40.965Z,54.19
2022-08-22T23:17:08.434Z,54.31
2022-08-22T23:19:36.338Z,54.34
2022-08-22T23:22:03.659Z,54.64
2022-08-22T23:24:33.041Z,54.95
2022-08-22T23:27:01.804Z,54.60
2022-08-22T23:29:29.358Z,55.16
2022-08-22T23:31:59.870Z,55.16
2022-08-22T23:34:39.299Z,55.58
2022-08-22T23:37:09.609Z,55.35
2022-08-22T23:39:38.563Z,55.18
2022-08-22T23:42:08.207Z,55.40
2022-08-22T23:44:37.725Z,55.70
2022-08-22T23:47:06.710Z,56.00
2022-08-22T23:49:36.591Z,55.81
2022-08-22T23:52:06.203Z,55.99
2022-08-22T23:54:34.963Z,56.28
2022-08-22T23:57:11.864Z,56.29
2022-08-22T23:59:46.513Z,56.65
